Time;durP1;ratioP1;P1;durP2;ratioP2;P2;SDS_P1;SDS_P2;PMS_P1;PMS_P2;Temp;Humidity;BMP_temperature;BMP_pressure;BME280_temperature;BME280_humidity;BME280_pressure;Samples;Min_cycle;Max_cycle;Signal;HPM_P1;HPM_P2
2023/03/22 00:00:28;;;;;;;10.30;6.72;;;;;;;;;;5032939;28;20025;-75
2023/03/22 00:02:54;;;;;;;11.57;7.00;;;;;;;;;;5033220;28;20025;-75
2023/03/22 00:05:20;;;;;;;11.73;7.35;;;;;;;;;;5032929;28;20512;-75
2023/03/22 00:07:48;;;;;;;11.88;7.18;;;;;;;;;;5032764;28;20025;-76
2023/03/22 00:10:14;;;;;;;11.65;6.47;;;;;;;;;;5033029;28;20025;-74
2023/03/22 00:12:39;;;;;;;11.07;6.28;;;;;;;;;;5031445;28;20075;-75
2023/03/22 00:15:06;;;;;;;10.98;6.30;;;;;;;;;;5032832;28;20025;-76
2023/03/22 00:17:31;;;;;;;9.88;6.40;;;;;;;;;;5032570;28;20435;-76
2023/03/22 00:19:57;;;;;;;10.27;6.30;;;;;;;;;;5032781;28;20025;-75
2023/03/22 00:22:23;;;;;;;11.63;6.50;;;;;;;;;;5032823;28;20017;-75
2023/03/22 00:24:48;;;;;;;9.90;5.72;;;;;;;;;;5032755;28;20048;-74
2023/03/22 00:27:13;;;;;;;10.23;6.37;;;;;;;;;;5032629;28;20468;-75
2023/03/22 00:29:39;;;;;;;12.25;6.47;;;;;;;;;;5032693;28;20748;-75
2023/03/22 00:32:04;;;;;;;10.47;6.90;;;;;;;;;;5032899;28;20078;-75
2023/03/22 00:34:31;;;;;;;12.35;6.82;;;;;;;;;;5032693;28;20282;-75
2023/03/22 00:36:56;;;;;;;10.75;5.85;;;;;;;;;;5032455;28;20025;-75
2023/03/22 00:39:21;;;;;;;8.27;5.65;;;;;;;;;;5033186;28;20430;-75
2023/03/22 00:41:47;;;;;;;12.73;6.75;;;;;;;;;;5031339;28;20048;-75
2023/03/22 00:44:12;;;;;;;11.77;6.53;;;;;;;;;;5032626;28;20056;-74
2023/03/22 00:46:37;;;;;;;12.20;6.50;;;;;;;;;;5032541;28;20029;-75
2023/03/22 00:49:03;;;;;;;14.03;6.63;;;;;;;;;;5031247;28;20503;-75
2023/03/22 00:51:28;;;;;;;9.23;6.43;;;;;;;;;;5032518;28;20741;-75
2023/03/22 00:53:53;;;;;;;10.57;6.63;;;;;;;;;;5034437;28;20025;-75
2023/03/22 00:56:18;;;;;;;11.80;6.15;;;;;;;;;;5036106;28;20324;-75
2023/03/22 00:58:44;;;;;;;13.85;6.63;;;;;;;;;;5034792;28;20037;-75
2023/03/22 01:01:12;;;;;;;9.23;6.38;;;;;;;;;;5036304;28;20400;-75
2023/03/22 01:03:37;;;;;;;8.88;5.78;;;;;;;;;;5036032;28;20040;-75
2023/03/22 01:06:03;;;;;;;13.10;6.57;;;;;;;;;;5036017;28;20485;-74
2023/03/22 01:08:32;;;;;;;10.23;5.95;;;;;;;;;;5035988;28;20037;-75
2023/03/22 01:10:58;;;;;;;11.38;6.15;;;;;;;;;;5036006;28;20071;-74
2023/03/22 01:13:23;;;;;;;10.52;6.10;;;;;;;;;;5034684;28;20116;-74
2023/03/22 01:15:49;;;;;;;10.20;6.00;;;;;;;;;;5035779;28;20400;-75
2023/03/22 01:18:15;;;;;;;10.27;6.05;;;;;;;;;;5034444;28;20262;-75
2023/03/22 01:20:40;;;;;;;14.75;6.22;;;;;;;;;;5035766;28;20031;-75
2023/03/22 01:23:05;;;;;;;12.23;6.22;;;;;;;;;;5035954;28;20053;-75
2023/03/22 01:25:30;;;;;;;12.20;5.93;;;;;;;;;;5034441;28;20044;-75
2023/03/22 01:27:56;;;;;;;10.43;6.43;;;;;;;;;;5035603;28;20120;-75
2023/03/22 01:30:21;;;;;;;9.60;6.28;;;;;;;;;;5034902;28;20033;-75
2023/03/22 01:32:46;;;;;;;10.23;6.70;;;;;;;;;;5035512;28;20033;-75
2023/03/22 01:35:11;;;;;;;11.68;6.82;;;;;;;;;;5034328;28;20029;-75
2023/03/22 01:37:37;;;;;;;10.57;6.18;;;;;;;;;;5035407;28;20033;-75
2023/03/22 01:40:03;;;;;;;12.18;6.40;;;;;;;;;;5035678;28;20029;-75
2023/03/22 01:42:28;;;;;;;12.63;5.80;;;;;;;;;;5034105;28;20033;-75
2023/03/22 01:45:35;;;;;;;11.10;6.22;;;;;;;;;;5035295;28;20397;-75
2023/03/22 01:48:44;;;;;;;10.30;6.07;;;;;;;;;;5013214;28;20085;-75
2023/03/22 01:51:20;;;;;;;10.60;6.05;;;;;;;;;;5035481;28;20035;-74
2023/03/22 01:53:50;;;;;;;11.20;6.28;;;;;;;;;;5035361;28;20084;-74
2023/03/22 01:56:18;;;;;;;10.00;5.65;;;;;;;;;;5033695;28;20044;-75
2023/03/22 01:58:45;;;;;;;11.20;5.20;;;;;;;;;;5034980;28;20037;-75
2023/03/22 02:01:10;;;;;;;8.88;6.30;;;;;;;;;;5034967;28;20036;-75
2023/03/22 02:03:58;;;;;;;11.10;6.13;;;;;;;;;;5033688;28;20129;-74
2023/03/22 02:06:25;;;;;;;8.82;5.53;;;;;;;;;;5034126;28;20032;-74
2023/03/22 02:08:56;;;;;;;13.50;6.20;;;;;;;;;;5034769;28;20032;-75
2023/03/22 02:11:29;;;;;;;12.30;6.10;;;;;;;;;;5035023;28;20022;-76
2023/03/22 02:14:12;;;;;;;12.35;6.05;;;;;;;;;;5035223;28;20053;-75
2023/03/22 02:17:05;;;;;;;11.23;6.00;;;;;;;;;;5034666;28;20098;-75
2023/03/22 02:19:52;;;;;;;10.85;5.63;;;;;;;;;;5033412;28;20041;-75
2023/03/22 02:22:37;;;;;;;8.82;5.90;;;;;;;;;;5035120;28;20023;-74
2023/03/22 02:25:35;;;;;;;11.35;6.30;;;;;;;;;;5034846;28;20365;-75
2023/03/22 02:28:40;;;;;;;11.25;6.07;;;;;;;;;;5025763;28;20048;-75
2023/03/22 02:31:27;;;;;;;;;;;;;;;;;;5033591;28;20118;-76
2023/03/22 02:34:23;;;;;;;12.18;5.30;;;;;;;;;;5033170;28;19915;-74
2023/03/22 02:37:16;;;;;;;9.82;5.80;;;;;;;;;;5032918;28;20385;-74
2023/03/22 02:39:49;;;;;;;8.75;5.70;;;;;;;;;;5034538;28;20030;-75
2023/03/22 02:42:42;;;;;;;10.13;5.95;;;;;;;;;;5033792;28;20460;-75
2023/03/22 02:45:15;;;;;;;11.80;5.75;;;;;;;;;;5034504;28;20026;-75
2023/03/22 02:47:50;;;;;;;9.63;5.43;;;;;;;;;;5033610;28;20022;-74
2023/03/22 02:50:29;;;;;;;9.63;5.63;;;;;;;;;;5034353;28;20018;-75
2023/03/22 02:53:02;;;;;;;12.80;6.00;;;;;;;;;;5033899;28;20068;-74
2023/03/22 02:55:47;;;;;;;10.32;6.03;;;;;;;;;;5032617;28;20029;-74
2023/03/22 02:58:30;;;;;;;9.57;5.28;;;;;;;;;;5030813;28;20029;-75
2023/03/22 03:01:02;;;;;;;9.32;5.55;;;;;;;;;;5032641;28;20516;-75
2023/03/22 03:03:30;;;;;;;12.13;5.55;;;;;;;;;;5032787;28;20504;-75
2023/03/22 03:06:00;;;;;;;8.43;5.75;;;;;;;;;;5032179;28;20455;-75
2023/03/22 03:08:26;;;;;;;11.73;5.60;;;;;;;;;;5033105;28;20025;-75
2023/03/22 03:10:53;;;;;;;8.73;5.47;;;;;;;;;;5033791;28;20041;-76
2023/03/22 03:13:18;;;;;;;11.15;5.65;;;;;;;;;;5033923;28;20109;-75
2023/03/22 03:15:56;;;;;;;9.65;5.65;;;;;;;;;;5033154;28;20504;-75
2023/03/22 03:18:39;;;;;;;7.65;5.30;;;;;;;;;;5033533;28;20097;-75
2023/03/22 03:21:10;;;;;;;9.37;5.50;;;;;;;;;;5033624;28;20518;-74
2023/03/22 03:23:45;;;;;;;11.45;5.82;;;;;;;;;;5032249;28;20251;-74
2023/03/22 03:26:24;;;;;;;9.35;5.30;;;;;;;;;;5033792;28;20024;-74
2023/03/22 03:29:07;;;;;;;12.10;5.45;;;;;;;;;;5033479;28;20094;-75
2023/03/22 03:31:39;;;;;;;7.43;5.22;;;;;;;;;;5032124;28;20037;-74
2023/03/22 03:34:14;;;;;;;10.48;5.97;;;;;;;;;;5033618;28;20552;-75
2023/03/22 03:36:45;;;;;;;8.95;5.47;;;;;;;;;;5032036;28;20407;-75
2023/03/22 03:39:13;;;;;;;10.68;5.72;;;;;;;;;;5033366;28;20025;-74
2023/03/22 03:41:40;;;;;;;11.23;5.85;;;;;;;;;;5031949;28;20025;-74
2023/03/22 03:44:06;;;;;;;8.65;5.68;;;;;;;;;;5033565;28;20022;-75
2023/03/22 03:46:32;;;;;;;12.32;6.43;;;;;;;;;;5033046;28;20023;-74
2023/03/22 03:48:58;;;;;;;9.00;5.85;;;;;;;;;;5031786;28;20065;-75
2023/03/22 03:51:26;;;;;;;10.75;5.93;;;;;;;;;;5033055;28;20080;-74
2023/03/22 03:53:51;;;;;;;9.38;5.40;;;;;;;;;;5031668;28;20025;-75
2023/03/22 03:56:16;;;;;;;10.02;5.10;;;;;;;;;;5032950;28;20136;-75
2023/03/22 03:58:41;;;;;;;12.07;6.70;;;;;;;;;;5033026;28;20025;-75
2023/03/22 04:01:07;;;;;;;11.45;5.68;;;;;;;;;;5033018;28;20263;-75
2023/03/22 04:03:32;;;;;;;8.73;5.50;;;;;;;;;;5033415;28;20109;-75
2023/03/22 04:05:58;;;;;;;9.00;4.97;;;;;;;;;;5033001;28;20507;-75
2023/03/22 04:08:24;;;;;;;8.13;4.95;;;;;;;;;;5032821;28;20262;-75
2023/03/22 04:10:50;;;;;;;7.63;4.65;;;;;;;;;;5032929;28;20040;-75
2023/03/22 04:13:16;;;;;;;7.93;4.70;;;;;;;;;;5033097;28;20104;-74
2023/03/22 04:15:41;;;;;;;6.97;4.20;;;;;;;;;;5032758;28;20057;-76
2023/03/22 04:18:08;;;;;;;10.00;4.50;;;;;;;;;;5032648;28;20123;-74
2023/03/22 04:20:33;;;;;;;5.93;4.20;;;;;;;;;;5032985;28;20667;-75
2023/03/22 04:22:59;;;;;;;7.78;3.90;;;;;;;;;;5032744;28;20113;-75
2023/03/22 04:25:28;;;;;;;11.10;3.95;;;;;;;;;;5032999;28;20053;-75
2023/03/22 04:27:54;;;;;;;5.82;3.88;;;;;;;;;;5033648;28;20025;-75
2023/03/22 04:30:21;;;;;;;4.90;3.40;;;;;;;;;;5036747;28;20037;-75
2023/03/22 04:32:46;;;;;;;5.20;3.60;;;;;;;;;;5036729;28;20036;-75
2023/03/22 04:35:12;;;;;;;5.00;3.42;;;;;;;;;;5037204;28;20029;-75
2023/03/22 04:37:38;;;;;;;6.43;3.63;;;;;;;;;;5036680;28;20061;-75
2023/03/22 04:40:07;;;;;;;5.68;3.55;;;;;;;;;;5036560;28;20040;-74
2023/03/22 04:42:33;;;;;;;6.10;3.55;;;;;;;;;;5036405;28;20075;-74
2023/03/22 04:44:59;;;;;;;5.72;2.92;;;;;;;;;;5036459;28;20425;-74
2023/03/22 04:47:24;;;;;;;7.28;3.10;;;;;;;;;;5036583;28;20013;-75
2023/03/22 04:49:50;;;;;;;8.20;3.15;;;;;;;;;;5036330;28;20021;-74
2023/03/22 04:52:15;;;;;;;9.43;3.20;;;;;;;;;;5035011;28;20029;-77
2023/03/22 04:54:40;;;;;;;11.88;5.25;;;;;;;;;;5034914;28;20119;-76
2023/03/22 04:57:06;;;;;;;11.50;5.95;;;;;;;;;;5035935;28;20109;-75
2023/03/22 04:59:31;;;;;;;7.85;4.40;;;;;;;;;;5036124;28;20473;-75
2023/03/22 05:01:56;;;;;;;9.25;5.15;;;;;;;;;;5035994;28;20029;-75
2023/03/22 05:04:21;;;;;;;8.10;4.35;;;;;;;;;;5036107;28;20030;-76
2023/03/22 05:06:47;;;;;;;10.85;5.00;;;;;;;;;;5035987;28;20020;-75
2023/03/22 05:09:13;;;;;;;7.55;4.70;;;;;;;;;;5034811;28;20028;-76
2023/03/22 05:11:39;;;;;;;13.57;7.25;;;;;;;;;;5036228;28;20025;-75
2023/03/22 05:14:05;;;;;;;8.65;5.47;;;;;;;;;;5036230;28;20056;-75
2023/03/22 05:16:31;;;;;;;4.60;3.53;;;;;;;;;;5035742;28;20034;-75
2023/03/22 05:18:56;;;;;;;5.80;3.30;;;;;;;;;;5035946;28;20451;-75
2023/03/22 05:21:27;;;;;;;7.07;4.40;;;;;;;;;;5035861;28;20094;-75
2023/03/22 05:23:55;;;;;;;6.43;3.78;;;;;;;;;;5036095;28;20030;-75
2023/03/22 05:26:23;;;;;;;7.65;4.15;;;;;;;;;;5035764;28;20017;-75
2023/03/22 05:28:49;;;;;;;7.43;3.88;;;;;;;;;;5035751;28;20025;-76
2023/03/22 05:31:15;;;;;;;6.30;3.90;;;;;;;;;;5035855;28;20477;-75
2023/03/22 05:33:41;;;;;;;5.60;3.78;;;;;;;;;;5035713;28;20032;-76
2023/03/22 05:36:07;;;;;;;5.20;3.38;;;;;;;;;;5035577;28;20401;-75
2023/03/22 05:38:33;;;;;;;7.95;3.80;;;;;;;;;;5035198;28;20493;-75
2023/03/22 05:40:58;;;;;;;5.60;3.30;;;;;;;;;;5033931;28;20032;-75
2023/03/22 05:43:23;;;;;;;5.75;3.13;;;;;;;;;;5035347;28;20033;-75
2023/03/22 05:45:49;;;;;;;4.70;3.33;;;;;;;;;;5035394;28;20048;-76
2023/03/22 05:48:15;;;;;;;5.35;3.33;;;;;;;;;;5034505;28;20095;-75
2023/03/22 05:50:40;;;;;;;5.78;3.25;;;;;;;;;;5035571;28;20468;-75
2023/03/22 05:53:06;;;;;;;4.28;3.20;;;;;;;;;;5035385;28;20029;-75
2023/03/22 05:55:31;;;;;;;5.35;2.67;;;;;;;;;;5035236;28;20459;-75
2023/03/22 05:57:58;;;;;;;5.65;3.30;;;;;;;;;;5034815;28;20056;-75
2023/03/22 06:00:24;;;;;;;5.97;3.50;;;;;;;;;;5033723;28;20048;-76
2023/03/22 06:02:51;;;;;;;7.35;3.22;;;;;;;;;;5034217;28;20025;-76
2023/03/22 06:05:17;;;;;;;6.07;3.42;;;;;;;;;;5034917;28;20022;-75
2023/03/22 06:07:43;;;;;;;6.38;3.35;;;;;;;;;;5034765;28;20144;-76
2023/03/22 06:10:11;;;;;;;8.30;3.25;;;;;;;;;;5033551;28;20477;-75
2023/03/22 06:12:37;;;;;;;6.40;3.30;;;;;;;;;;5035261;28;20040;-75
2023/03/22 06:15:03;;;;;;;7.28;3.92;;;;;;;;;;5035298;28;20029;-75
2023/03/22 06:17:29;;;;;;;6.78;3.63;;;;;;;;;;5033182;28;20029;-76
2023/03/22 06:19:54;;;;;;;6.63;3.63;;;;;;;;;;5033473;28;20059;-75
2023/03/22 06:22:20;;;;;;;8.65;3.97;;;;;;;;;;5034426;28;20033;-75
2023/03/22 06:24:46;;;;;;;7.25;3.50;;;;;;;;;;5034838;28;20384;-75
2023/03/22 06:27:11;;;;;;;4.97;3.28;;;;;;;;;;5034314;28;20013;-75
2023/03/22 06:29:37;;;;;;;4.47;3.17;;;;;;;;;;5034690;28;20025;-75
2023/03/22 06:32:02;;;;;;;7.00;3.47;;;;;;;;;;5034292;28;20112;-75
2023/03/22 06:34:27;;;;;;;4.55;3.28;;;;;;;;;;5034401;28;20294;-76
2023/03/22 06:36:53;;;;;;;5.38;3.63;;;;;;;;;;5032773;28;20030;-76
2023/03/22 06:39:21;;;;;;;6.25;3.53;;;;;;;;;;5034290;28;20017;-75
2023/03/22 06:41:47;;;;;;;5.65;3.17;;;;;;;;;;5034391;28;20033;-75
2023/03/22 06:44:13;;;;;;;5.95;3.47;;;;;;;;;;5034187;28;20032;-76
2023/03/22 06:46:38;;;;;;;8.10;3.90;;;;;;;;;;5034082;28;20022;-75
2023/03/22 06:49:04;;;;;;;6.90;3.72;;;;;;;;;;5034126;28;20100;-76
2023/03/22 06:51:29;;;;;;;6.55;3.50;;;;;;;;;;5033285;28;20489;-76
2023/03/22 06:53:54;;;;;;;5.72;3.38;;;;;;;;;;5034137;28;20021;-74
2023/03/22 06:56:20;;;;;;;5.78;3.35;;;;;;;;;;5033727;28;20033;-75
2023/03/22 06:58:45;;;;;;;22.58;4.07;;;;;;;;;;5033802;28;20056;-74
2023/03/22 07:01:10;;;;;;;8.32;3.78;;;;;;;;;;5033774;28;20029;-75
2023/03/22 07:03:36;;;;;;;7.03;3.60;;;;;;;;;;5032412;28;20026;-75
2023/03/22 07:06:02;;;;;;;7.28;3.60;;;;;;;;;;5033896;28;20247;-76
2023/03/22 07:08:27;;;;;;;7.25;3.65;;;;;;;;;;5033525;28;20056;-74
2023/03/22 07:10:52;;;;;;;4.53;3.13;;;;;;;;;;5033657;28;20068;-75
2023/03/22 07:13:18;;;;;;;6.27;3.47;;;;;;;;;;5033410;28;20029;-74
2023/03/22 07:15:43;;;;;;;7.07;3.30;;;;;;;;;;5033780;28;20266;-75
2023/03/22 07:18:08;;;;;;;7.03;3.95;;;;;;;;;;5031903;28;20267;-75
2023/03/22 07:20:37;;;;;;;7.20;3.90;;;;;;;;;;5033377;28;20492;-76
2023/03/22 07:23:02;;;;;;;6.55;3.80;;;;;;;;;;5033300;28;20021;-76
2023/03/22 07:25:28;;;;;;;6.35;3.85;;;;;;;;;;5033452;28;20033;-75
2023/03/22 07:27:53;;;;;;;7.53;3.63;;;;;;;;;;5033451;28;20064;-76
2023/03/22 07:30:18;;;;;;;7.83;3.30;;;;;;;;;;5033278;28;20071;-75
2023/03/22 07:32:44;;;;;;;9.85;3.20;;;;;;;;;;5032059;28;20308;-75
2023/03/22 07:35:09;;;;;;;6.55;3.60;;;;;;;;;;5033120;28;20531;-74
2023/03/22 07:37:35;;;;;;;4.47;3.33;;;;;;;;;;5032992;28;20104;-76
2023/03/22 07:40:00;;;;;;;6.57;3.20;;;;;;;;;;5032206;28;20164;-75
2023/03/22 07:42:25;;;;;;;11.02;3.85;;;;;;;;;;5032978;28;20316;-75
2023/03/22 07:44:51;;;;;;;5.20;3.13;;;;;;;;;;5033256;28;20038;-76
2023/03/22 07:47:16;;;;;;;7.22;3.28;;;;;;;;;;5036360;28;20266;-80
2023/03/22 07:49:41;;;;;;;6.50;3.03;;;;;;;;;;5036442;28;20024;-76
2023/03/22 07:52:07;;;;;;;6.40;3.47;;;;;;;;;;5033094;28;20021;-76
2023/03/22 07:54:32;;;;;;;7.68;3.17;;;;;;;;;;5032775;28;20083;-76
2023/03/22 07:56:57;;;;;;;6.47;3.40;;;;;;;;;;5033217;28;20030;-77
2023/03/22 07:59:23;;;;;;;4.88;3.17;;;;;;;;;;5031461;28;20041;-75
2023/03/22 08:01:49;;;;;;;7.18;3.28;;;;;;;;;;5032567;28;20071;-75
2023/03/22 08:04:14;;;;;;;6.75;3.50;;;;;;;;;;5032655;28;20101;-75
2023/03/22 08:06:41;;;;;;;4.95;3.25;;;;;;;;;;5032710;28;20030;-76
2023/03/22 08:09:07;;;;;;;7.95;3.72;;;;;;;;;;5033742;28;20030;-76
2023/03/22 08:11:32;;;;;;;5.10;3.47;;;;;;;;;;5033661;28;20018;-76
2023/03/22 08:13:58;;;;;;;6.65;3.83;;;;;;;;;;5033667;28;20496;-75
2023/03/22 08:16:23;;;;;;;9.53;3.70;;;;;;;;;;5033158;28;20029;-76
2023/03/22 08:18:48;;;;;;;7.30;3.70;;;;;;;;;;5033307;28;20266;-75
2023/03/22 08:21:13;;;;;;;8.37;3.53;;;;;;;;;;5033811;28;20257;-76
2023/03/22 08:23:39;;;;;;;7.30;3.38;;;;;;;;;;5031724;28;20378;-76
2023/03/22 08:26:04;;;;;;;8.55;3.53;;;;;;;;;;5033500;28;20068;-76
2023/03/22 08:28:30;;;;;;;7.07;3.35;;;;;;;;;;5033552;28;20034;-75
2023/03/22 08:30:55;;;;;;;8.75;3.65;;;;;;;;;;5031741;28;20053;-75
2023/03/22 08:33:22;;;;;;;6.97;3.67;;;;;;;;;;5032540;28;20468;-75
2023/03/22 08:35:48;;;;;;;5.35;3.20;;;;;;;;;;5032641;28;20025;-76
2023/03/22 08:38:13;;;;;;;7.38;2.70;;;;;;;;;;5032501;28;20021;-75
2023/03/22 08:40:38;;;;;;;4.22;2.10;;;;;;;;;;5032764;28;20026;-77
2023/03/22 08:43:04;;;;;;;4.28;2.00;;;;;;;;;;5032340;28;20037;-75
2023/03/22 08:45:29;;;;;;;4.65;2.00;;;;;;;;;;5032591;28;20052;-75
2023/03/22 08:47:56;;;;;;;9.20;2.25;;;;;;;;;;5031493;28;20028;-76
2023/03/22 08:50:22;;;;;;;4.88;2.00;;;;;;;;;;5031560;28;20033;-76
2023/03/22 08:52:47;;;;;;;4.03;2.10;;;;;;;;;;5032648;28;20018;-76
2023/03/22 08:55:13;;;;;;;3.55;1.80;;;;;;;;;;5032654;28;20029;-77
2023/03/22 08:57:38;;;;;;;2.65;1.58;;;;;;;;;;5032480;28;20104;-76
2023/03/22 09:00:05;;;;;;;6.25;1.85;;;;;;;;;;5032674;28;20119;-76
2023/03/22 09:02:31;;;;;;;3.65;1.60;;;;;;;;;;5032560;28;20492;-77
2023/03/22 09:04:56;;;;;;;3.70;1.80;;;;;;;;;;5032313;28;20108;-76
2023/03/22 09:07:23;;;;;;;2.55;1.83;;;;;;;;;;5032225;28;20056;-76
2023/03/22 09:09:48;;;;;;;3.92;1.40;;;;;;;;;;5032457;28;20033;-77
2023/03/22 09:12:14;;;;;;;4.25;1.67;;;;;;;;;;5032385;28;20025;-76
2023/03/22 09:14:39;;;;;;;4.18;1.58;;;;;;;;;;5034288;28;20108;-77
2023/03/22 09:17:05;;;;;;;4.43;1.65;;;;;;;;;;5035721;28;20040;-76
2023/03/22 09:19:30;;;;;;;4.43;1.83;;;;;;;;;;5035805;28;20017;-76
2023/03/22 09:21:55;;;;;;;6.53;1.65;;;;;;;;;;5035570;28;20109;-77
2023/03/22 09:24:21;;;;;;;6.68;2.30;;;;;;;;;;5035647;28;20029;-76
2023/03/22 09:26:46;;;;;;;2.95;1.67;;;;;;;;;;5035623;28;20026;-76
2023/03/22 09:29:12;;;;;;;3.03;1.30;;;;;;;;;;5035084;28;20048;-77
2023/03/22 09:31:38;;;;;;;7.15;1.95;;;;;;;;;;5035731;28;20626;-76
2023/03/22 09:34:03;;;;;;;4.00;1.55;;;;;;;;;;5035413;28;20025;-77
2023/03/22 09:36:28;;;;;;;2.10;1.17;;;;;;;;;;5035933;28;20377;-77
2023/03/22 09:38:53;;;;;;;3.05;1.45;;;;;;;;;;5036335;28;20072;-77
2023/03/22 09:41:33;;;;;;;3.22;1.10;;;;;;;;;;5035581;28;20037;-76
2023/03/22 09:44:04;;;;;;;4.72;1.50;;;;;;;;;;5035684;28;20455;-79
2023/03/22 09:46:32;;;;;;;6.10;1.98;;;;;;;;;;5035801;28;20112;-75
2023/03/22 09:49:00;;;;;;;1.70;1.05;;;;;;;;;;5035322;28;20025;-76
2023/03/22 09:51:48;;;;;;;3.17;1.25;;;;;;;;;;5035475;28;20075;-76
2023/03/22 09:54:20;;;;;;;3.42;1.02;;;;;;;;;;5035716;28;20022;-75
2023/03/22 09:56:57;;;;;;;2.55;1.02;;;;;;;;;;5033555;28;20631;-75
2023/03/22 09:59:44;;;;;;;4.45;1.27;;;;;;;;;;5035229;28;20480;-75
2023/03/22 10:02:36;;;;;;;4.32;1.48;;;;;;;;;;5033574;28;20025;-75
2023/03/22 10:05:26;;;;;;;4.68;1.02;;;;;;;;;;5033732;28;20025;-76
2023/03/22 10:08:03;;;;;;;3.63;1.17;;;;;;;;;;5033684;28;20044;-75
2023/03/22 10:10:29;;;;;;;2.15;1.02;;;;;;;;;;5035175;28;20036;-75
2023/03/22 10:13:18;;;;;;;2.13;0.90;;;;;;;;;;5033813;28;20033;-76
2023/03/22 10:15:46;;;;;;;4.07;1.38;;;;;;;;;;5033697;28;20492;-76
2023/03/22 10:18:34;;;;;;;4.95;1.30;;;;;;;;;;5034774;28;20052;-76
2023/03/22 10:21:03;;;;;;;2.17;0.88;;;;;;;;;;5033238;28;20033;-75
2023/03/22 10:23:41;;;;;;;1.50;0.77;;;;;;;;;;5032584;28;20048;-78
2023/03/22 10:26:07;;;;;;;2.03;0.80;;;;;;;;;;5033064;28;20049;-78
2023/03/22 10:28:42;;;;;;;2.05;0.98;;;;;;;;;;5034015;28;20034;-77
2023/03/22 10:31:14;;;;;;;1.73;0.75;;;;;;;;;;5033755;28;20036;-75
2023/03/22 10:33:50;;;;;;;1.45;0.70;;;;;;;;;;5035022;28;20028;-75
2023/03/22 10:36:18;;;;;;;2.70;0.80;;;;;;;;;;5034788;28;20026;-76
2023/03/22 10:38:52;;;;;;;2.70;0.80;;;;;;;;;;5035020;28;20017;-77
2023/03/22 10:41:19;;;;;;;1.70;0.75;;;;;;;;;;5034881;28;20415;-76
2023/03/22 10:43:49;;;;;;;1.48;0.90;;;;;;;;;;5034949;28;20029;-76
2023/03/22 10:46:18;;;;;;;3.00;0.90;;;;;;;;;;5033239;28;20105;-75
2023/03/22 10:48:47;;;;;;;1.08;0.60;;;;;;;;;;5033983;28;20396;-76
2023/03/22 10:51:26;;;;;;;6.75;0.90;;;;;;;;;;5033888;28;20055;-75
2023/03/22 10:53:54;;;;;;;1.88;0.98;;;;;;;;;;5033372;28;20041;-75
2023/03/22 10:56:20;;;;;;;1.52;0.80;;;;;;;;;;5033570;28;20033;-75
2023/03/22 10:58:49;;;;;;;1.15;0.88;;;;;;;;;;5033615;28;20037;-75
2023/03/22 11:01:28;;;;;;;1.90;0.70;;;;;;;;;;5032301;28;20036;-76
2023/03/22 11:04:07;;;;;;;0.95;0.85;;;;;;;;;;5033569;28;20545;-76
2023/03/22 11:06:37;;;;;;;0.98;0.70;;;;;;;;;;5034102;28;20031;-76
2023/03/22 11:09:14;;;;;;;1.50;0.80;;;;;;;;;;5032337;28;20024;-76
2023/03/22 11:11:54;;;;;;;3.25;0.75;;;;;;;;;;5033848;28;20021;-76
2023/03/22 11:14:36;;;;;;;0.98;0.70;;;;;;;;;;5033800;28;20049;-76
2023/03/22 11:17:04;;;;;;;1.48;0.70;;;;;;;;;;5033450;28;20076;-76
2023/03/22 11:19:41;;;;;;;0.95;0.73;;;;;;;;;;5033504;28;20179;-76
2023/03/22 11:22:20;;;;;;;1.08;0.70;;;;;;;;;;5032135;28;20037;-76
2023/03/22 11:24:46;;;;;;;1.88;0.70;;;;;;;;;;5033526;28;20538;-76
2023/03/22 11:27:21;;;;;;;1.30;0.80;;;;;;;;;;5033529;28;20033;-76
2023/03/22 11:29:52;;;;;;;2.03;0.90;;;;;;;;;;5033257;28;20117;-76
2023/03/22 11:32:28;;;;;;;2.30;1.05;;;;;;;;;;5033436;28;20029;-76
2023/03/22 11:35:10;;;;;;;2.15;0.88;;;;;;;;;;5033637;28;20477;-76
2023/03/22 11:37:44;;;;;;;3.35;1.15;;;;;;;;;;5033066;28;20033;-76
2023/03/22 11:40:14;;;;;;;4.75;1.08;;;;;;;;;;5033194;28;20022;-76
2023/03/22 11:42:40;;;;;;;3.58;1.00;;;;;;;;;;5033059;28;20029;-76
2023/03/22 11:45:06;;;;;;;1.80;1.00;;;;;;;;;;5033030;28;20108;-76
2023/03/22 11:47:37;;;;;;;2.67;0.93;;;;;;;;;;5032780;28;20088;-75
2023/03/22 11:50:06;;;;;;;1.33;0.73;;;;;;;;;;5033640;28;20491;-76
2023/03/22 11:52:31;;;;;;;2.83;0.80;;;;;;;;;;5033236;28;20029;-76
2023/03/22 11:54:58;;;;;;;0.80;0.73;;;;;;;;;;5031891;28;20437;-77
2023/03/22 11:57:27;;;;;;;2.25;0.70;;;;;;;;;;5032629;28;20159;-76
2023/03/22 12:00:10;;;;;;;1.08;0.70;;;;;;;;;;5033404;28;20029;-75
2023/03/22 12:02:49;;;;;;;2.05;0.73;;;;;;;;;;5033282;28;20025;-76
2023/03/22 12:05:20;;;;;;;1.08;0.98;;;;;;;;;;5032946;28;20060;-76
2023/03/22 12:07:48;;;;;;;2.63;0.88;;;;;;;;;;5031645;28;20061;-76
2023/03/22 12:10:25;;;;;;;0.63;0.63;;;;;;;;;;5032951;28;20029;-75
2023/03/22 12:12:58;;;;;;;3.47;0.88;;;;;;;;;;5033055;28;20086;-76
2023/03/22 12:15:31;;;;;;;2.55;0.75;;;;;;;;;;5031408;28;20078;-76
2023/03/22 12:18:12;;;;;;;2.30;0.80;;;;;;;;;;5031417;28;20029;-77
2023/03/22 12:20:47;;;;;;;1.67;0.70;;;;;;;;;;5031705;28;20060;-76
2023/03/22 12:23:19;;;;;;;1.92;0.70;;;;;;;;;;5031485;28;20021;-77
2023/03/22 12:26:10;;;;;;;1.05;0.55;;;;;;;;;;5032567;28;20075;-75
2023/03/22 12:28:47;;;;;;;1.98;0.90;;;;;;;;;;5031432;28;20558;-75
2023/03/22 12:31:15;;;;;;;3.22;0.80;;;;;;;;;;5032628;28;20025;-76
2023/03/22 12:33:47;;;;;;;0.60;0.60;;;;;;;;;;5032752;28;20061;-75
2023/03/22 12:36:19;;;;;;;1.83;0.70;;;;;;;;;;5032415;28;20029;-76
2023/03/22 12:38:55;;;;;;;1.88;0.80;;;;;;;;;;5031123;28;20504;-77
2023/03/22 12:41:34;;;;;;;1.02;0.65;;;;;;;;;;5032656;28;20025;-76
2023/03/22 12:44:10;;;;;;;0.95;0.63;;;;;;;;;;5032642;28;20025;-75
2023/03/22 12:46:49;;;;;;;1.48;0.68;;;;;;;;;;5032442;28;20048;-76
2023/03/22 12:49:18;;;;;;;0.75;0.68;;;;;;;;;;5033736;28;20112;-76
2023/03/22 12:51:44;;;;;;;1.33;0.80;;;;;;;;;;5035037;28;20029;-75
2023/03/22 12:54:12;;;;;;;2.47;0.70;;;;;;;;;;5036032;28;20440;-76
2023/03/22 12:56:44;;;;;;;0.65;0.65;;;;;;;;;;5035816;28;20029;-76
2023/03/22 12:59:26;;;;;;;2.65;1.10;;;;;;;;;;5036520;28;20568;-76
2023/03/22 13:02:10;;;;;;;1.50;0.90;;;;;;;;;;5036257;28;20029;-77
2023/03/22 13:04:35;;;;;;;1.70;0.80;;;;;;;;;;5036211;28;20025;-76
2023/03/22 13:07:12;;;;;;;1.37;0.80;;;;;;;;;;5036072;28;20059;-76
2023/03/22 13:09:39;;;;;;;1.85;1.00;;;;;;;;;;5036151;28;20112;-76
2023/03/22 13:12:16;;;;;;;2.55;0.93;;;;;;;;;;5034596;28;20033;-76
2023/03/22 13:14:48;;;;;;;1.40;0.85;;;;;;;;;;5036249;28;20075;-77
2023/03/22 13:17:32;;;;;;;2.25;0.80;;;;;;;;;;5035821;28;20091;-76
2023/03/22 13:19:58;;;;;;;;;;;;;;;;;;5036339;28;20087;-77
2023/03/22 13:22:29;;;;;;;3.70;0.90;;;;;;;;;;5034535;28;19936;-76
2023/03/22 13:25:15;;;;;;;1.80;0.90;;;;;;;;;;5035616;28;20032;-76
2023/03/22 13:27:43;;;;;;;2.08;0.80;;;;;;;;;;5035390;28;20079;-76
2023/03/22 13:30:20;;;;;;;1.73;0.90;;;;;;;;;;5035488;28;20060;-76
2023/03/22 13:32:55;;;;;;;0.73;0.70;;;;;;;;;;5035896;28;20021;-77
2023/03/22 13:35:26;;;;;;;1.63;1.02;;;;;;;;;;5035408;28;20491;-76
2023/03/22 13:37:52;;;;;;;0.85;0.75;;;;;;;;;;5035514;28;20029;-77
2023/03/22 13:40:45;;;;;;;2.72;0.90;;;;;;;;;;5035568;28;20530;-76
2023/03/22 13:43:20;;;;;;;1.40;0.95;;;;;;;;;;5035210;28;20029;-76
2023/03/22 13:46:07;;;;;;;2.55;0.95;;;;;;;;;;5035413;28;20098;-76
2023/03/22 13:48:54;;;;;;;2.00;0.80;;;;;;;;;;5035011;28;20033;-76
2023/03/22 13:51:22;;;;;;;1.23;0.80;;;;;;;;;;5035007;28;20036;-76
2023/03/22 13:54:07;;;;;;;2.78;0.95;;;;;;;;;;5033659;28;20025;-76
2023/03/22 13:56:48;;;;;;;3.22;0.93;;;;;;;;;;5034923;28;20508;-76
2023/03/22 13:59:26;;;;;;;2.83;0.75;;;;;;;;;;5033765;28;20077;-76
2023/03/22 14:02:36;;;;;;;2.15;0.77;;;;;;;;;;5034599;28;20021;-75
2023/03/22 14:05:21;;;;;;;1.40;0.90;;;;;;;;;;5033601;28;20547;-75
2023/03/22 14:07:51;;;;;;;1.88;0.90;;;;;;;;;;5033563;28;20033;-76
2023/03/22 14:10:25;;;;;;;1.67;1.00;;;;;;;;;;5033546;28;20022;-76
2023/03/22 14:12:58;;;;;;;2.55;0.88;;;;;;;;;;5034988;28;20048;-78
2023/03/22 14:15:28;;;;;;;3.70;0.90;;;;;;;;;;5033464;28;20131;-76
2023/03/22 14:17:59;;;;;;;0.77;0.70;;;;;;;;;;5034782;28;20030;-77
2023/03/22 14:20:31;;;;;;;1.02;0.80;;;;;;;;;;5033410;28;20057;-76
2023/03/22 14:23:01;;;;;;;1.88;1.10;;;;;;;;;;5035260;28;20032;-76
2023/03/22 14:25:30;;;;;;;1.63;0.85;;;;;;;;;;5034841;28;20108;-76
2023/03/22 14:27:56;;;;;;;1.58;0.90;;;;;;;;;;5034573;28;20030;-77
2023/03/22 14:30:30;;;;;;;2.55;0.80;;;;;;;;;;5033301;28;20036;-76
2023/03/22 14:33:00;;;;;;;3.05;0.90;;;;;;;;;;5033443;28;20393;-76
2023/03/22 14:35:35;;;;;;;2.25;0.80;;;;;;;;;;5034567;28;20032;-77
2023/03/22 14:38:15;;;;;;;2.10;0.90;;;;;;;;;;5035129;28;20495;-76
2023/03/22 14:40:40;;;;;;;1.10;0.80;;;;;;;;;;5034654;28;20041;-76
2023/03/22 14:43:18;;;;;;;4.13;0.90;;;;;;;;;;5034500;28;20028;-76
2023/03/22 14:45:44;;;;;;;2.75;1.00;;;;;;;;;;5034430;28;20048;-76
2023/03/22 14:48:31;;;;;;;1.33;0.88;;;;;;;;;;5034308;28;20021;-76
2023/03/22 14:50:57;;;;;;;1.05;0.80;;;;;;;;;;5034526;28;20480;-77
2023/03/22 14:53:28;;;;;;;2.97;0.90;;;;;;;;;;5034292;28;20036;-77
2023/03/22 14:55:55;;;;;;;2.53;1.10;;;;;;;;;;5034204;28;20404;-76
2023/03/22 14:58:24;;;;;;;0.93;0.77;;;;;;;;;;5032831;28;20037;-76